Airfield :
LOGIN :

Register | Disclaimer

   EN    FR    IT 

 










Legend :    VFR   Marginal VFR   IFR   Intensive IFR   Very Intensive IFR
Visi :
Ceiling :
>= 8 km
>= 3000ft
5 to 8 km
1000 to 3000 ft
1500m to 5 km
500 to 1000 ft
800 to 1500m
200 to 500 ft
< 800m
< 200 ft
Symbols :   Thunderstorms  Fog  Heavy snow  Heavy precipitations  Wind > 20 kt
SIGMETs :     Misc.  Thunderstorms  Icing  Turbulence  Mountain Waves  Volcanic Ashes






- Airport Elevation : 9 ft
- IATA code : MIR


DTMB - Habib Bourguliba Int. Monastir

CURRENT METAR :
  • 161730Z 14015KT CAVOK 30/23 Q1016

EXPIRED METARs :
  • 161700Z 14018KT CAVOK 31/23 Q1016
  • 161630Z 13016KT 8000 NSC 32/23 Q1016
  • 161600Z 13018KT 8000 NSC 32/22 Q1016
  • 161530Z 13018KT 8000 NSC 33/22 Q1016
  • 161500Z 13017KT 8000 NSC 34/22 Q1016

TAF TAF DTMB
Valid from the 16 at 18:00 until the 17 at 18:00 UTC


161700Z 1618/1718 13018KT CAVOK
BECMG 1701/1703 18007KT
BECMG 1715/1717 16017KT



MET'MAP, your aeronautical weather chart ! - Copyright ORBIFLY December 2007 - Disclaimer

ORBIFLY MET'MAP TEAM :

Programming & Development : Alexandra Zaïnal
Concept & original design : Baudouin d'Aumeries
Assistance for programming : Marc-Olivier Méhu
Technical & hardware support : Manuel Goepfert

Contact : metmap@orbifly.com




SOURCES & CREDITS :

   NOAA